createdAt,value
2018-12-30T00:02:04.621Z,4.90
2018-12-30T00:04:34.869Z,5.00
2018-12-30T00:07:05.652Z,5.10
2018-12-30T00:09:36.966Z,5.00
2018-12-30T00:12:07.474Z,5.00
2018-12-30T00:14:37.881Z,5.10
2018-12-30T00:17:08.210Z,5.10
2018-12-30T00:19:42.336Z,5.10
2018-12-30T00:22:10.671Z,5.10
2018-12-30T00:24:40.942Z,5.10
2018-12-30T00:27:11.113Z,5.10
2018-12-30T00:29:41.510Z,5.10
2018-12-30T00:32:11.837Z,5.10
2018-12-30T00:34:42.645Z,5.00
2018-12-30T00:37:12.796Z,5.00
2018-12-30T00:39:43.001Z,5.00
2018-12-30T00:42:13.234Z,4.90
2018-12-30T00:44:43.357Z,5.00
2018-12-30T00:47:14.013Z,5.00
2018-12-30T00:49:44.273Z,4.90
2018-12-30T00:52:14.658Z,4.90
2018-12-30T00:54:44.921Z,4.90
2018-12-30T00:57:15.187Z,4.90
2018-12-30T00:59:45.893Z,4.90
2018-12-30T01:02:16.178Z,4.80
2018-12-30T01:04:46.434Z,4.80
2018-12-30T01:07:17.829Z,4.80
2018-12-30T01:09:48.154Z,4.80
2018-12-30T01:12:20.757Z,4.80
2018-12-30T01:14:51.010Z,4.80
2018-12-30T01:17:21.227Z,4.80
2018-12-30T01:19:51.743Z,4.80
2018-12-30T01:22:21.966Z,4.80
2018-12-30T01:24:52.254Z,4.80
2018-12-30T01:27:22.536Z,4.80
2018-12-30T01:29:59.640Z,4.80
2018-12-30T01:32:29.955Z,4.90
2018-12-30T01:35:00.517Z,4.90
2018-12-30T01:37:30.815Z,4.90
2018-12-30T01:40:01.098Z,4.90
2018-12-30T01:42:31.485Z,4.90
2018-12-30T01:45:01.895Z,4.90
2018-12-30T01:47:32.378Z,4.90
2018-12-30T01:50:02.705Z,4.90
2018-12-30T01:52:32.948Z,4.90
2018-12-30T01:55:03.350Z,5.00
2018-12-30T01:57:33.636Z,5.00
2018-12-30T02:00:04.047Z,5.00
2018-12-30T02:02:34.347Z,5.00
2018-12-30T02:05:04.672Z,5.00
2018-12-30T02:07:34.919Z,5.00
2018-12-30T02:10:05.994Z,5.00
2018-12-30T02:12:36.309Z,5.00
2018-12-30T02:15:06.861Z,5.00
2018-12-30T02:17:37.172Z,5.00
2018-12-30T02:20:07.590Z,5.10
2018-12-30T02:22:37.860Z,5.10
2018-12-30T02:25:08.196Z,5.10
2018-12-30T02:27:38.479Z,5.10
2018-12-30T02:30:08.963Z,5.10
2018-12-30T02:32:39.477Z,5.20
2018-12-30T02:35:09.761Z,5.20
2018-12-30T02:37:40.070Z,5.20
2018-12-30T02:40:10.359Z,5.10
2018-12-30T02:42:40.703Z,5.20
2018-12-30T02:45:11.008Z,5.20
2018-12-30T02:47:41.156Z,5.20
2018-12-30T02:50:11.465Z,5.30
2018-12-30T02:52:41.598Z,5.30
2018-12-30T02:55:31.036Z,5.30
2018-12-30T02:58:12.803Z,5.30
2018-12-30T03:01:02.179Z,5.20
2018-12-30T03:03:44.582Z,5.20
2018-12-30T03:06:33.923Z,5.20
2018-12-30T03:09:16.235Z,5.10
2018-12-30T03:12:05.604Z,5.10
2018-12-30T03:14:48.031Z,5.10
2018-12-30T03:17:37.419Z,5.10
2018-12-30T03:20:19.123Z,5.20
2018-12-30T03:23:08.605Z,5.20
2018-12-30T03:25:50.866Z,5.20
2018-12-30T03:28:40.222Z,5.20
2018-12-30T03:31:22.644Z,5.20
2018-12-30T03:34:11.976Z,5.20
2018-12-30T03:37:01.340Z,5.20
2018-12-30T03:39:43.706Z,5.20
2018-12-30T03:42:33.189Z,5.10
2018-12-30T03:45:15.514Z,5.10
2018-12-30T03:48:05.018Z,5.10
2018-12-30T03:50:47.310Z,5.10
2018-12-30T03:53:55.703Z,5.10
2018-12-30T03:56:38.241Z,5.10
2018-12-30T03:59:27.678Z,5.10
2018-12-30T04:02:09.909Z,5.00
2018-12-30T04:04:59.390Z,5.00
2018-12-30T04:07:41.974Z,5.00
2018-12-30T04:10:31.392Z,5.00
2018-12-30T04:13:13.613Z,5.00
2018-12-30T04:16:02.968Z,4.90
2018-12-30T04:18:45.485Z,4.90
2018-12-30T04:21:34.873Z,4.90
2018-12-30T04:24:17.227Z,4.90
2018-12-30T04:27:06.586Z,4.90
2018-12-30T04:29:48.366Z,5.00
2018-12-30T04:32:37.832Z,5.10
2018-12-30T04:35:19.937Z,5.10
2018-12-30T04:38:09.338Z,5.10
2018-12-30T04:40:51.081Z,5.10
2018-12-30T04:43:40.476Z,5.10
2018-12-30T04:46:10.716Z,5.10
2018-12-30T04:48:40.886Z,5.10
2018-12-30T04:51:11.227Z,5.10
2018-12-30T04:53:41.585Z,5.10
2018-12-30T04:56:11.878Z,5.10
2018-12-30T04:58:42.137Z,5.10
2018-12-30T05:01:12.387Z,5.10
2018-12-30T05:03:42.667Z,5.20
2018-12-30T05:06:12.978Z,5.20
2018-12-30T05:08:43.246Z,5.20
2018-12-30T05:11:14.766Z,5.20
2018-12-30T05:13:45.094Z,5.20
2018-12-30T05:16:15.470Z,5.30
2018-12-30T05:18:45.653Z,5.30
2018-12-30T05:21:15.936Z,5.30
2018-12-30T05:23:46.183Z,5.30
2018-12-30T05:28:46.207Z,5.40
2018-12-30T05:31:16.432Z,5.40
2018-12-30T05:33:46.632Z,5.40
2018-12-30T05:36:16.989Z,5.40
2018-12-30T05:38:47.190Z,5.40
2018-12-30T05:41:17.515Z,5.40
2018-12-30T05:43:47.853Z,5.40
2018-12-30T05:46:18.242Z,5.40
2018-12-30T05:48:48.581Z,5.40
2018-12-30T05:51:18.853Z,5.30
2018-12-30T05:53:49.047Z,5.30
2018-12-30T05:56:19.337Z,5.30
2018-12-30T05:58:49.627Z,5.30
2018-12-30T06:01:19.913Z,5.30
2018-12-30T06:03:50.256Z,5.30
2018-12-30T06:06:20.579Z,5.30
2018-12-30T06:08:50.965Z,5.20
2018-12-30T06:11:21.326Z,5.20
2018-12-30T06:13:51.505Z,5.20
2018-12-30T06:16:21.756Z,5.20
2018-12-30T06:18:52.030Z,5.20
2018-12-30T06:21:22.309Z,5.20
2018-12-30T06:23:52.628Z,5.20
2018-12-30T06:26:22.930Z,5.20
2018-12-30T06:28:53.314Z,5.10
2018-12-30T06:31:23.695Z,5.10
2018-12-30T06:33:53.950Z,5.10
2018-12-30T06:36:24.137Z,5.10
2018-12-30T06:38:54.439Z,5.10
2018-12-30T06:41:25.014Z,5.10
2018-12-30T06:43:55.363Z,5.10
2018-12-30T06:46:25.571Z,5.10
2018-12-30T06:48:55.806Z,5.10
2018-12-30T06:51:26.120Z,5.10
2018-12-30T06:53:56.371Z,5.10
2018-12-30T06:56:26.572Z,5.20
2018-12-30T07:01:26.757Z,5.20
2018-12-30T07:03:56.952Z,5.20
2018-12-30T07:06:27.294Z,5.20
2018-12-30T07:08:57.582Z,5.20
2018-12-30T07:11:27.892Z,5.20
2018-12-30T07:13:58.197Z,5.20
2018-12-30T07:16:28.515Z,5.20
2018-12-30T07:18:58.857Z,5.20
2018-12-30T07:21:29.001Z,5.20
2018-12-30T07:23:59.407Z,5.10
2018-12-30T07:26:29.915Z,5.20
2018-12-30T07:29:00.225Z,5.20
2018-12-30T07:31:30.397Z,5.20
2018-12-30T07:34:00.694Z,5.20
2018-12-30T07:36:30.842Z,5.20
2018-12-30T07:39:01.038Z,5.30
2018-12-30T07:41:31.168Z,5.20
2018-12-30T07:44:01.294Z,5.30
2018-12-30T07:46:31.398Z,5.20
2018-12-30T07:49:01.725Z,5.30
2018-12-30T07:51:31.952Z,5.20
2018-12-30T07:54:02.130Z,5.20
2018-12-30T07:56:32.443Z,5.20
2018-12-30T07:59:02.664Z,5.20
2018-12-30T08:01:32.966Z,5.20
2018-12-30T08:04:03.320Z,5.20
2018-12-30T08:06:35.582Z,5.20
2018-12-30T08:09:08.530Z,5.20
2018-12-30T08:11:39.025Z,5.20
2018-12-30T08:14:09.398Z,5.30
2018-12-30T08:16:39.711Z,5.30
2018-12-30T08:19:10.171Z,5.20
2018-12-30T08:21:40.399Z,5.40
2018-12-30T08:24:10.852Z,5.50
2018-12-30T08:26:41.121Z,5.50
2018-12-30T08:29:11.436Z,5.40
2018-12-30T08:31:41.708Z,5.40
2018-12-30T08:34:12.012Z,5.40
2018-12-30T08:36:42.208Z,5.50
2018-12-30T08:39:12.670Z,5.50
2018-12-30T08:41:42.966Z,5.50
2018-12-30T08:44:13.276Z,5.50
2018-12-30T08:46:43.545Z,5.60
2018-12-30T08:49:13.902Z,5.60
2018-12-30T08:51:44.080Z,5.60
2018-12-30T08:54:15.624Z,5.70
2018-12-30T08:56:45.867Z,5.80
2018-12-30T08:59:16.151Z,5.90
2018-12-30T09:01:46.412Z,5.90
2018-12-30T09:04:16.699Z,6.00
2018-12-30T09:06:47.162Z,6.10
2018-12-30T09:09:17.483Z,6.20
2018-12-30T09:11:48.707Z,6.20
2018-12-30T09:14:18.868Z,6.30
2018-12-30T09:16:49.161Z,6.30
2018-12-30T09:19:19.507Z,6.30
2018-12-30T09:21:49.744Z,6.20
2018-12-30T09:24:20.041Z,6.30
2018-12-30T09:26:50.300Z,6.30
2018-12-30T09:29:20.429Z,6.30
2018-12-30T09:31:50.702Z,6.30
2018-12-30T09:34:20.875Z,6.30
2018-12-30T09:36:51.309Z,6.30
2018-12-30T09:39:27.894Z,6.30
2018-12-30T09:41:58.179Z,6.40
2018-12-30T09:44:28.429Z,6.40
2018-12-30T09:46:58.649Z,6.50
2018-12-30T09:49:28.903Z,6.60
2018-12-30T09:51:59.161Z,6.60
2018-12-30T09:54:29.312Z,6.70
2018-12-30T09:56:59.717Z,6.70
2018-12-30T09:59:29.885Z,6.70
2018-12-30T10:02:00.263Z,6.80
2018-12-30T10:04:30.574Z,6.70
2018-12-30T10:07:00.775Z,6.70
2018-12-30T10:09:31.074Z,6.40
2018-12-30T10:12:01.324Z,6.70
2018-12-30T10:14:31.694Z,6.60
2018-12-30T10:17:02.061Z,6.60
2018-12-30T10:19:32.208Z,6.70
2018-12-30T10:22:02.590Z,6.80
2018-12-30T10:24:32.830Z,6.80
2018-12-30T10:27:03.187Z,6.70
2018-12-30T10:29:33.404Z,6.70
2018-12-30T10:32:03.730Z,6.70
2018-12-30T10:34:33.948Z,6.80
2018-12-30T10:37:10.149Z,6.80
2018-12-30T10:39:40.475Z,6.70
2018-12-30T10:42:10.976Z,6.70
2018-12-30T10:44:41.361Z,6.70
2018-12-30T10:47:11.498Z,6.70
2018-12-30T10:49:41.701Z,6.70
2018-12-30T10:52:12.096Z,6.70
2018-12-30T10:54:42.388Z,6.80
2018-12-30T10:57:12.703Z,6.80
2018-12-30T10:59:43.115Z,6.90
2018-12-30T11:02:13.488Z,6.90
2018-12-30T11:04:43.911Z,6.90
2018-12-30T11:07:14.359Z,7.00
2018-12-30T11:09:44.727Z,6.90
2018-12-30T11:12:15.198Z,6.80
2018-12-30T11:14:45.496Z,6.80
2018-12-30T11:17:15.879Z,6.70
2018-12-30T11:19:46.143Z,6.70
2018-12-30T11:22:16.690Z,6.70
2018-12-30T11:24:46.983Z,6.70
2018-12-30T11:27:17.499Z,6.60
2018-12-30T11:29:47.919Z,6.60
2018-12-30T11:34:48.741Z,6.60
2018-12-30T11:37:19.177Z,6.70
2018-12-30T11:39:49.449Z,6.70
2018-12-30T11:42:19.903Z,6.60
2018-12-30T11:44:50.203Z,6.60
2018-12-30T11:47:20.481Z,6.70
2018-12-30T11:49:50.744Z,6.70
2018-12-30T11:52:21.199Z,6.70
2018-12-30T11:54:51.549Z,6.80
2018-12-30T11:57:22.034Z,6.80
2018-12-30T11:59:52.196Z,6.80
2018-12-30T12:02:24.224Z,7.00
2018-12-30T12:04:54.695Z,7.00
2018-12-30T12:07:25.066Z,7.00
2018-12-30T12:09:55.296Z,7.00
2018-12-30T12:12:25.706Z,6.90
2018-12-30T12:14:56.034Z,6.90
2018-12-30T12:17:26.384Z,6.80
2018-12-30T12:19:56.845Z,6.90
2018-12-30T12:22:27.118Z,6.80
2018-12-30T12:24:57.452Z,6.70
2018-12-30T12:27:27.786Z,6.60
2018-12-30T12:29:58.182Z,6.70
2018-12-30T12:32:28.550Z,6.60
2018-12-30T12:34:59.977Z,6.60
2018-12-30T12:40:00.180Z,6.60
2018-12-30T12:42:30.609Z,6.60
2018-12-30T12:45:00.935Z,6.70
2018-12-30T12:47:31.376Z,6.60
2018-12-30T12:52:31.489Z,6.50
2018-12-30T12:55:01.912Z,6.50
2018-12-30T12:57:32.167Z,6.50
2018-12-30T13:00:02.584Z,6.50
2018-12-30T13:02:33.053Z,6.50
2018-12-30T13:05:03.496Z,6.50
2018-12-30T13:07:33.802Z,6.50
2018-12-30T13:10:04.812Z,6.50
2018-12-30T13:12:35.168Z,6.50
2018-12-30T13:15:06.290Z,6.40
2018-12-30T13:17:36.612Z,6.40
2018-12-30T13:20:07.464Z,6.30
2018-12-30T13:22:37.777Z,6.20
2018-12-30T13:25:08.197Z,6.10
2018-12-30T13:27:38.589Z,6.10
2018-12-30T13:30:09.751Z,6.10
2018-12-30T13:32:41.104Z,6.00
2018-12-30T13:35:11.388Z,6.00
2018-12-30T13:37:41.830Z,6.00
2018-12-30T13:40:12.286Z,6.00
2018-12-30T13:42:42.595Z,6.00
2018-12-30T13:45:13.026Z,6.00
2018-12-30T13:47:43.359Z,6.00
2018-12-30T13:50:13.651Z,6.00
2018-12-30T13:52:43.962Z,6.00
2018-12-30T13:55:14.209Z,6.00
2018-12-30T13:57:44.481Z,6.00
2018-12-30T14:00:14.829Z,6.00
2018-12-30T14:02:45.209Z,6.00
2018-12-30T14:05:16.513Z,6.00
2018-12-30T14:07:46.911Z,6.10
2018-12-30T14:10:17.283Z,6.20
2018-12-30T14:12:47.555Z,6.20
2018-12-30T14:15:17.982Z,6.20
2018-12-30T14:17:48.304Z,6.20
2018-12-30T14:20:18.491Z,6.20
2018-12-30T14:22:48.858Z,6.10
2018-12-30T14:25:19.184Z,6.20
2018-12-30T14:27:49.498Z,6.20
2018-12-30T14:30:19.941Z,6.20
2018-12-30T14:32:50.309Z,6.10
2018-12-30T14:35:20.679Z,6.10
2018-12-30T14:37:50.995Z,6.00
2018-12-30T14:40:21.459Z,6.00
2018-12-30T14:42:51.844Z,5.90
2018-12-30T14:45:22.275Z,5.90
2018-12-30T14:47:52.622Z,5.90
2018-12-30T14:50:22.978Z,5.90
2018-12-30T14:52:53.334Z,5.90
2018-12-30T14:55:23.675Z,5.80
2018-12-30T14:57:54.007Z,5.80
2018-12-30T15:00:24.439Z,5.70
2018-12-30T15:02:54.803Z,5.80
2018-12-30T15:05:25.155Z,5.80
2018-12-30T15:07:55.411Z,5.80
2018-12-30T15:10:28.440Z,5.70
2018-12-30T15:12:58.896Z,5.80
2018-12-30T15:15:29.255Z,5.80
2018-12-30T15:17:59.649Z,5.70
2018-12-30T15:20:30.036Z,5.70
2018-12-30T15:23:00.421Z,5.70
2018-12-30T15:25:31.020Z,5.70
2018-12-30T15:28:01.387Z,5.70
2018-12-30T15:30:31.608Z,5.70
2018-12-30T15:33:01.831Z,5.70
2018-12-30T15:35:31.994Z,5.70
2018-12-30T15:38:02.239Z,5.60
2018-12-30T15:40:32.593Z,5.70
2018-12-30T15:43:02.907Z,5.70
2018-12-30T15:48:03.224Z,5.60
2018-12-30T15:50:33.612Z,5.60
2018-12-30T15:53:04.038Z,5.60
2018-12-30T15:55:34.419Z,5.60
2018-12-30T15:58:04.733Z,5.60
2018-12-30T16:00:34.973Z,5.60
2018-12-30T16:03:05.305Z,5.60
2018-12-30T16:05:35.767Z,5.60
2018-12-30T16:08:06.174Z,5.60
2018-12-30T16:10:36.757Z,5.50
2018-12-30T16:13:07.210Z,5.60
2018-12-30T16:15:37.606Z,5.50
2018-12-30T16:18:07.963Z,5.50
2018-12-30T16:20:38.486Z,5.50
2018-12-30T16:23:08.929Z,5.60
2018-12-30T16:25:39.403Z,5.60
2018-12-30T16:28:09.874Z,5.60
2018-12-30T16:30:40.447Z,5.60
2018-12-30T16:33:10.750Z,5.60
2018-12-30T16:35:44.542Z,5.50
2018-12-30T16:38:17.443Z,5.40
2018-12-30T16:40:50.687Z,5.50
2018-12-30T16:43:20.888Z,5.40
2018-12-30T16:45:51.321Z,5.40
2018-12-30T16:48:21.789Z,5.40
2018-12-30T16:50:52.293Z,5.40
2018-12-30T16:53:22.630Z,5.40
2018-12-30T16:55:53.115Z,5.30
2018-12-30T16:58:24.497Z,5.30
2018-12-30T17:00:55.059Z,5.30
2018-12-30T17:03:25.366Z,5.30
2018-12-30T17:05:55.785Z,5.30
2018-12-30T17:08:26.191Z,5.20
2018-12-30T17:10:57.484Z,5.20
2018-12-30T17:13:27.936Z,5.20
2018-12-30T17:15:58.328Z,5.20
2018-12-30T17:18:28.930Z,5.20
2018-12-30T17:20:59.563Z,5.20
2018-12-30T17:23:29.889Z,5.20
2018-12-30T17:26:00.158Z,5.10
2018-12-30T17:28:30.632Z,5.10
2018-12-30T17:31:01.053Z,5.10
2018-12-30T17:33:31.420Z,5.10
2018-12-30T17:36:01.703Z,5.10
2018-12-30T17:41:02.008Z,5.00
2018-12-30T17:46:02.190Z,5.10
2018-12-30T17:48:32.565Z,5.10
2018-12-30T17:51:02.990Z,5.10
2018-12-30T17:53:33.296Z,5.10
2018-12-30T17:56:03.956Z,5.20
2018-12-30T17:58:34.387Z,5.10
2018-12-30T18:01:04.848Z,5.20
2018-12-30T18:03:35.119Z,5.20
2018-12-30T18:06:05.572Z,5.10
2018-12-30T18:08:36.046Z,5.10
2018-12-30T18:11:06.431Z,5.10
2018-12-30T18:13:36.783Z,5.10
2018-12-30T18:16:07.265Z,5.20
2018-12-30T18:18:37.598Z,5.20
2018-12-30T18:21:07.995Z,5.20
2018-12-30T18:23:39.346Z,5.10
2018-12-30T18:26:09.943Z,5.20
2018-12-30T18:28:40.472Z,5.10
2018-12-30T18:33:40.931Z,5.20
2018-12-30T18:36:11.430Z,5.20
2018-12-30T18:38:41.832Z,5.20
2018-12-30T18:41:12.222Z,5.20
2018-12-30T18:43:42.698Z,5.20
2018-12-30T18:46:13.161Z,5.10
2018-12-30T18:48:43.540Z,5.10
2018-12-30T18:51:13.855Z,5.10
2018-12-30T18:53:44.221Z,5.10
2018-12-30T18:56:14.632Z,5.10
2018-12-30T18:58:45.033Z,5.10
2018-12-30T19:01:15.440Z,5.10
2018-12-30T19:03:45.940Z,5.10
2018-12-30T19:06:16.351Z,5.10
2018-12-30T19:08:46.635Z,5.10
2018-12-30T19:11:17.029Z,5.10
2018-12-30T19:13:47.367Z,5.10
2018-12-30T19:16:17.724Z,5.10
2018-12-30T19:18:47.997Z,5.00
2018-12-30T19:21:18.452Z,5.00
2018-12-30T19:23:48.697Z,5.00
2018-12-30T19:26:19.073Z,5.00
2018-12-30T19:28:49.689Z,5.00
2018-12-30T19:31:20.005Z,5.00
2018-12-30T19:33:50.363Z,5.00
2018-12-30T19:36:20.803Z,5.00
2018-12-30T19:38:51.128Z,5.00
2018-12-30T19:41:21.734Z,5.00
2018-12-30T19:43:52.073Z,5.00
2018-12-30T19:46:22.570Z,5.00
2018-12-30T19:48:52.907Z,5.00
2018-12-30T19:51:23.222Z,5.00
2018-12-30T19:53:53.550Z,5.00
2018-12-30T19:56:24.000Z,5.00
2018-12-30T19:58:54.421Z,5.00
2018-12-30T20:01:24.798Z,5.00
2018-12-30T20:03:55.419Z,5.10
2018-12-30T20:06:25.906Z,5.10
2018-12-30T20:08:56.486Z,5.10
2018-12-30T20:11:27.063Z,5.10
2018-12-30T20:13:57.474Z,5.20
2018-12-30T20:16:27.943Z,5.20
2018-12-30T20:18:58.161Z,5.10
2018-12-30T20:21:28.611Z,5.10
2018-12-30T20:23:58.979Z,5.20
2018-12-30T20:26:30.038Z,5.20
2018-12-30T20:29:00.508Z,5.10
2018-12-30T20:31:30.928Z,5.10
2018-12-30T20:34:01.301Z,5.10
2018-12-30T20:36:31.540Z,5.10
2018-12-30T20:39:01.810Z,5.10
2018-12-30T20:41:32.108Z,5.10
2018-12-30T20:44:02.257Z,5.00
2018-12-30T20:46:32.716Z,5.00
2018-12-30T20:49:03.036Z,5.00
2018-12-30T20:51:33.460Z,4.90
2018-12-30T20:54:03.751Z,4.90
2018-12-30T20:56:37.856Z,4.90
2018-12-30T21:01:37.403Z,4.90
2018-12-30T21:04:07.931Z,4.80
2018-12-30T21:09:01.763Z,4.80
2018-12-30T21:11:32.232Z,4.80
2018-12-30T21:14:02.644Z,4.70
2018-12-30T21:16:33.012Z,4.80
2018-12-30T21:19:03.412Z,4.80
2018-12-30T21:21:33.770Z,4.80
2018-12-30T21:24:03.942Z,4.80
2018-12-30T21:26:34.410Z,4.70
2018-12-30T21:29:04.800Z,4.70
2018-12-30T21:31:36.117Z,4.70
2018-12-30T21:34:06.529Z,4.70
2018-12-30T21:36:36.908Z,4.70
2018-12-30T21:39:09.399Z,4.70
2018-12-30T21:41:39.774Z,4.70
2018-12-30T21:44:10.140Z,4.70
2018-12-30T21:46:40.527Z,4.70
2018-12-30T21:49:10.795Z,4.60
2018-12-30T21:51:41.341Z,4.60
2018-12-30T21:56:41.475Z,4.60
2018-12-30T21:59:11.745Z,4.60
2018-12-30T22:01:42.085Z,4.60
2018-12-30T22:04:12.277Z,4.70
2018-12-30T22:06:42.654Z,4.60
2018-12-30T22:09:13.100Z,4.70
2018-12-30T22:11:43.573Z,4.70
2018-12-30T22:14:13.833Z,4.70
2018-12-30T22:16:44.246Z,4.70
2018-12-30T22:19:14.608Z,4.70
2018-12-30T22:24:14.808Z,4.70
2018-12-30T22:26:45.093Z,4.70
2018-12-30T22:29:15.493Z,4.70
2018-12-30T22:34:15.965Z,4.70
2018-12-30T22:36:46.212Z,4.70
2018-12-30T22:39:16.681Z,4.70
2018-12-30T22:41:46.962Z,4.70
2018-12-30T22:44:17.285Z,4.80
2018-12-30T22:46:47.766Z,4.80
2018-12-30T22:49:18.069Z,4.70
2018-12-30T22:54:18.274Z,4.70
2018-12-30T22:56:48.631Z,4.80
2018-12-30T22:59:19.067Z,4.80
2018-12-30T23:01:49.793Z,4.80
2018-12-30T23:04:20.172Z,4.80
2018-12-30T23:06:50.648Z,4.80
2018-12-30T23:09:20.999Z,4.80
2018-12-30T23:11:51.734Z,4.80
2018-12-30T23:14:22.053Z,4.80
2018-12-30T23:16:52.383Z,4.80
2018-12-30T23:19:23.624Z,4.80
2018-12-30T23:21:55.070Z,4.80
2018-12-30T23:24:25.553Z,4.80
2018-12-30T23:26:56.022Z,4.80
2018-12-30T23:29:26.268Z,4.80
2018-12-30T23:31:56.526Z,4.80
2018-12-30T23:34:26.769Z,4.80
2018-12-30T23:36:57.021Z,4.80
2018-12-30T23:39:27.336Z,4.80
2018-12-30T23:41:57.800Z,4.80
2018-12-30T23:44:28.184Z,4.80
2018-12-30T23:46:58.484Z,4.80
2018-12-30T23:49:28.747Z,4.90
2018-12-30T23:51:58.985Z,4.80
2018-12-30T23:54:29.283Z,4.90
2018-12-30T23:56:59.546Z,4.80
2018-12-30T23:59:29.680Z,4.80
